sensor_id;sensor_type;location;lat;lon;timestamp;pressure;altitude;pressure_sealevel;temperature;humidity
30110;BME280;14965;50.660;13.226;2023-04-25T00:02:01;94065.03;;;5.07;90.02
30110;BME280;14965;50.660;13.226;2023-04-25T00:04:29;94066.72;;;5.00;90.04
30110;BME280;14965;50.660;13.226;2023-04-25T00:06:55;94061.88;;;4.88;90.46
30110;BME280;14965;50.660;13.226;2023-04-25T00:09:21;94055.72;;;4.84;90.88
30110;BME280;14965;50.660;13.226;2023-04-25T00:11:47;94058.50;;;4.81;91.13
30110;BME280;14965;50.660;13.226;2023-04-25T00:14:13;94063.78;;;4.71;91.14
30110;BME280;14965;50.660;13.226;2023-04-25T00:16:39;94057.31;;;4.62;91.43
30110;BME280;14965;50.660;13.226;2023-04-25T00:19:05;94062.78;;;4.62;91.36
30110;BME280;14965;50.660;13.226;2023-04-25T00:21:32;94057.75;;;4.60;91.33
30110;BME280;14965;50.660;13.226;2023-04-25T00:23:58;94063.22;;;4.60;91.29
30110;BME280;14965;50.660;13.226;2023-04-25T00:26:24;94062.16;;;4.54;91.37
30110;BME280;14965;50.660;13.226;2023-04-25T00:28:50;94060.56;;;4.57;91.13
30110;BME280;14965;50.660;13.226;2023-04-25T00:31:16;94060.25;;;4.51;91.32
30110;BME280;14965;50.660;13.226;2023-04-25T00:33:42;94063.84;;;4.48;91.04
30110;BME280;14965;50.660;13.226;2023-04-25T00:36:08;94056.81;;;4.47;91.42
30110;BME280;14965;50.660;13.226;2023-04-25T00:38:35;94057.28;;;4.42;91.37
30110;BME280;14965;50.660;13.226;2023-04-25T00:41:01;94058.13;;;4.39;91.17
30110;BME280;14965;50.660;13.226;2023-04-25T00:43:27;94055.47;;;4.35;91.76
30110;BME280;14965;50.660;13.226;2023-04-25T00:45:54;94058.97;;;4.36;91.52
30110;BME280;14965;50.660;13.226;2023-04-25T00:48:23;94048.88;;;4.33;91.56
30110;BME280;14965;50.660;13.226;2023-04-25T00:50:53;94056.03;;;4.27;91.91
30110;BME280;14965;50.660;13.226;2023-04-25T00:53:19;94046.63;;;4.28;91.97
30110;BME280;14965;50.660;13.226;2023-04-25T00:55:47;94049.00;;;4.25;92.15
30110;BME280;14965;50.660;13.226;2023-04-25T00:58:13;94048.28;;;4.21;92.31
30110;BME280;14965;50.660;13.226;2023-04-25T01:00:40;94046.81;;;4.17;92.07
30110;BME280;14965;50.660;13.226;2023-04-25T01:03:06;94046.47;;;4.15;92.36
30110;BME280;14965;50.660;13.226;2023-04-25T01:05:32;94048.44;;;4.14;92.27
30110;BME280;14965;50.660;13.226;2023-04-25T01:07:59;94047.63;;;4.14;91.98
30110;BME280;14965;50.660;13.226;2023-04-25T01:10:25;94049.25;;;4.11;92.37
30110;BME280;14965;50.660;13.226;2023-04-25T01:12:52;94048.88;;;4.09;92.30
30110;BME280;14965;50.660;13.226;2023-04-25T01:15:18;94035.16;;;4.13;92.48
30110;BME280;14965;50.660;13.226;2023-04-25T01:17:44;94045.34;;;4.12;92.78
30110;BME280;14965;50.660;13.226;2023-04-25T01:20:11;94042.66;;;4.09;92.97
30110;BME280;14965;50.660;13.226;2023-04-25T01:22:41;94046.47;;;4.15;93.20
30110;BME280;14965;50.660;13.226;2023-04-25T01:25:08;94044.44;;;4.19;92.88
30110;BME280;14965;50.660;13.226;2023-04-25T01:27:35;94032.66;;;4.22;93.05
30110;BME280;14965;50.660;13.226;2023-04-25T01:30:01;94042.44;;;4.23;93.25
30110;BME280;14965;50.660;13.226;2023-04-25T01:32:28;94036.19;;;4.22;93.80
30110;BME280;14965;50.660;13.226;2023-04-25T01:34:54;94032.25;;;4.23;93.73
30110;BME280;14965;50.660;13.226;2023-04-25T01:37:22;94026.47;;;4.18;93.80
30110;BME280;14965;50.660;13.226;2023-04-25T01:39:49;94035.88;;;4.17;93.87
30110;BME280;14965;50.660;13.226;2023-04-25T01:42:16;94034.69;;;4.18;93.94
30110;BME280;14965;50.660;13.226;2023-04-25T01:44:42;94033.84;;;4.21;94.38
30110;BME280;14965;50.660;13.226;2023-04-25T01:47:08;94026.38;;;4.25;94.38
30110;BME280;14965;50.660;13.226;2023-04-25T01:49:33;94034.06;;;4.30;94.31
30110;BME280;14965;50.660;13.226;2023-04-25T01:51:59;94033.53;;;4.39;94.23
30110;BME280;14965;50.660;13.226;2023-04-25T01:54:25;94027.94;;;4.46;94.14
30110;BME280;14965;50.660;13.226;2023-04-25T01:56:52;94028.63;;;4.50;93.98
30110;BME280;14965;50.660;13.226;2023-04-25T01:59:19;94040.28;;;4.54;94.04
30110;BME280;14965;50.660;13.226;2023-04-25T02:01:44;94029.72;;;4.56;93.77
30110;BME280;14965;50.660;13.226;2023-04-25T02:04:10;94032.34;;;4.60;94.02
30110;BME280;14965;50.660;13.226;2023-04-25T02:06:36;94027.81;;;4.53;94.42
30110;BME280;14965;50.660;13.226;2023-04-25T02:09:02;94030.03;;;4.58;94.64
30110;BME280;14965;50.660;13.226;2023-04-25T02:11:28;94035.03;;;4.63;94.82
30110;BME280;14965;50.660;13.226;2023-04-25T02:13:55;94033.06;;;4.64;94.67
30110;BME280;14965;50.660;13.226;2023-04-25T02:16:21;94036.09;;;4.69;94.71
30110;BME280;14965;50.660;13.226;2023-04-25T02:18:47;94037.50;;;4.78;94.58
30110;BME280;14965;50.660;13.226;2023-04-25T02:21:13;94028.00;;;4.82;94.53
30110;BME280;14965;50.660;13.226;2023-04-25T02:23:38;94034.25;;;4.83;94.11
30110;BME280;14965;50.660;13.226;2023-04-25T02:26:04;94024.00;;;4.87;94.20
30110;BME280;14965;50.660;13.226;2023-04-25T02:28:30;94017.78;;;4.86;94.11
30110;BME280;14965;50.660;13.226;2023-04-25T02:30:57;94021.28;;;4.87;93.92
30110;BME280;14965;50.660;13.226;2023-04-25T02:33:23;94014.53;;;4.91;93.79
30110;BME280;14965;50.660;13.226;2023-04-25T02:35:49;94023.00;;;4.97;93.75
30110;BME280;14965;50.660;13.226;2023-04-25T02:38:15;94012.75;;;5.01;93.65
30110;BME280;14965;50.660;13.226;2023-04-25T02:40:41;94009.31;;;4.97;93.85
30110;BME280;14965;50.660;13.226;2023-04-25T02:43:07;94012.44;;;4.99;93.25
30110;BME280;14965;50.660;13.226;2023-04-25T02:45:33;94009.69;;;4.99;93.42
30110;BME280;14965;50.660;13.226;2023-04-25T02:48:00;94015.59;;;4.97;93.51
30110;BME280;14965;50.660;13.226;2023-04-25T02:50:26;94016.69;;;5.00;93.47
30110;BME280;14965;50.660;13.226;2023-04-25T02:52:52;94011.91;;;5.04;93.35
30110;BME280;14965;50.660;13.226;2023-04-25T02:55:18;94007.22;;;5.05;93.71
30110;BME280;14965;50.660;13.226;2023-04-25T02:57:43;94005.59;;;5.07;93.48
30110;BME280;14965;50.660;13.226;2023-04-25T03:00:11;94009.94;;;5.05;92.93
30110;BME280;14965;50.660;13.226;2023-04-25T03:02:37;94005.25;;;5.05;93.15
30110;BME280;14965;50.660;13.226;2023-04-25T03:05:05;94003.56;;;5.11;93.01
30110;BME280;14965;50.660;13.226;2023-04-25T03:07:31;94000.31;;;5.16;93.63
30110;BME280;14965;50.660;13.226;2023-04-25T03:09:56;94002.63;;;5.18;93.03
30110;BME280;14965;50.660;13.226;2023-04-25T03:12:22;94010.75;;;5.21;93.38
30110;BME280;14965;50.660;13.226;2023-04-25T03:14:48;94004.09;;;5.22;93.88
30110;BME280;14965;50.660;13.226;2023-04-25T03:17:14;93995.09;;;5.22;94.89
30110;BME280;14965;50.660;13.226;2023-04-25T03:19:40;94000.25;;;5.20;94.93
30110;BME280;14965;50.660;13.226;2023-04-25T03:22:07;93994.84;;;5.16;95.28
30110;BME280;14965;50.660;13.226;2023-04-25T03:24:33;93996.03;;;5.15;95.49
30110;BME280;14965;50.660;13.226;2023-04-25T03:26:58;93984.75;;;5.13;95.86
30110;BME280;14965;50.660;13.226;2023-04-25T03:29:24;93994.84;;;5.16;95.91
30110;BME280;14965;50.660;13.226;2023-04-25T03:31:50;93992.88;;;5.17;96.12
30110;BME280;14965;50.660;13.226;2023-04-25T03:34:16;93987.00;;;5.18;95.72
30110;BME280;14965;50.660;13.226;2023-04-25T03:36:42;93989.28;;;5.20;95.47
30110;BME280;14965;50.660;13.226;2023-04-25T03:39:09;93987.31;;;5.20;94.75
30110;BME280;14965;50.660;13.226;2023-04-25T03:41:35;93990.91;;;5.17;94.93
30110;BME280;14965;50.660;13.226;2023-04-25T03:44:01;93992.88;;;5.17;94.90
30110;BME280;14965;50.660;13.226;2023-04-25T03:46:27;93989.44;;;5.13;94.87
30110;BME280;14965;50.660;13.226;2023-04-25T03:48:52;93990.22;;;5.13;94.49
30110;BME280;14965;50.660;13.226;2023-04-25T03:51:18;93989.50;;;5.09;94.46
30110;BME280;14965;50.660;13.226;2023-04-25T03:53:44;93999.78;;;5.05;94.35
30110;BME280;14965;50.660;13.226;2023-04-25T03:56:11;93999.44;;;5.03;93.91
30110;BME280;14965;50.660;13.226;2023-04-25T03:58:37;94002.94;;;5.04;94.16
30110;BME280;14965;50.660;13.226;2023-04-25T04:01:03;93987.28;;;5.04;94.46
30110;BME280;14965;50.660;13.226;2023-04-25T04:03:29;93989.59;;;5.06;94.54
30110;BME280;14965;50.660;13.226;2023-04-25T04:05:55;93993.81;;;5.10;94.97
30110;BME280;14965;50.660;13.226;2023-04-25T04:08:21;93994.16;;;5.12;95.13
30110;BME280;14965;50.660;13.226;2023-04-25T04:10:46;94000.06;;;5.11;95.21
30110;BME280;14965;50.660;13.226;2023-04-25T04:13:14;93997.25;;;5.14;94.62
30110;BME280;14965;50.660;13.226;2023-04-25T04:15:39;94001.84;;;5.17;95.08
30110;BME280;14965;50.660;13.226;2023-04-25T04:18:06;94001.00;;;5.20;94.60
30110;BME280;14965;50.660;13.226;2023-04-25T04:20:31;93999.47;;;5.19;94.43
30110;BME280;14965;50.660;13.226;2023-04-25T04:22:57;93999.47;;;5.19;93.64
30110;BME280;14965;50.660;13.226;2023-04-25T04:25:23;93996.75;;;5.19;93.59
30110;BME280;14965;50.660;13.226;2023-04-25T04:27:49;93999.03;;;5.21;92.89
30110;BME280;14965;50.660;13.226;2023-04-25T04:30:16;94005.28;;;5.21;93.10
30110;BME280;14965;50.660;13.226;2023-04-25T04:32:42;94005.47;;;5.14;92.05
30110;BME280;14965;50.660;13.226;2023-04-25T04:35:08;94004.19;;;5.19;92.37
30110;BME280;14965;50.660;13.226;2023-04-25T04:37:34;94004.88;;;5.23;92.53
30110;BME280;14965;50.660;13.226;2023-04-25T04:40:00;94011.88;;;5.24;92.44
30110;BME280;14965;50.660;13.226;2023-04-25T04:42:26;93999.41;;;5.23;92.32
30110;BME280;14965;50.660;13.226;2023-04-25T04:44:52;94000.16;;;5.23;92.65
30110;BME280;14965;50.660;13.226;2023-04-25T04:47:19;94000.16;;;5.23;92.51
30110;BME280;14965;50.660;13.226;2023-04-25T04:49:45;94004.94;;;5.19;92.67
30110;BME280;14965;50.660;13.226;2023-04-25T04:52:10;94002.38;;;5.12;92.33
30110;BME280;14965;50.660;13.226;2023-04-25T04:54:36;94008.88;;;5.18;91.80
30110;BME280;14965;50.660;13.226;2023-04-25T04:57:02;94006.47;;;5.20;91.98
30110;BME280;14965;50.660;13.226;2023-04-25T04:59:28;94004.19;;;5.19;91.22
30110;BME280;14965;50.660;13.226;2023-04-25T05:01:54;93999.72;;;5.25;92.13
30110;BME280;14965;50.660;13.226;2023-04-25T05:04:21;94004.63;;;5.34;91.61
30110;BME280;14965;50.660;13.226;2023-04-25T05:06:47;93996.06;;;5.32;90.88
30110;BME280;14965;50.660;13.226;2023-04-25T05:09:13;93990.75;;;5.24;89.83
30110;BME280;14965;50.660;13.226;2023-04-25T05:11:39;93999.56;;;5.32;90.57
30110;BME280;14965;50.660;13.226;2023-04-25T05:14:04;94000.69;;;5.35;89.85
30110;BME280;14965;50.660;13.226;2023-04-25T05:16:30;94008.22;;;5.47;90.04
30110;BME280;14965;50.660;13.226;2023-04-25T05:18:56;94006.78;;;5.59;90.06
30110;BME280;14965;50.660;13.226;2023-04-25T05:21:23;93998.72;;;5.68;89.14
30110;BME280;14965;50.660;13.226;2023-04-25T05:23:49;94008.50;;;5.85;89.24
30110;BME280;14965;50.660;13.226;2023-04-25T05:26:15;94004.84;;;5.92;88.25
30110;BME280;14965;50.660;13.226;2023-04-25T05:28:41;94008.25;;;5.96;88.13
30110;BME280;14965;50.660;13.226;2023-04-25T05:31:07;94004.22;;;6.01;87.64
30110;BME280;14965;50.660;13.226;2023-04-25T05:33:34;94001.50;;;6.01;88.00
30110;BME280;14965;50.660;13.226;2023-04-25T05:36:00;94008.75;;;5.91;86.06
30110;BME280;14965;50.660;13.226;2023-04-25T05:38:27;94004.03;;;5.91;86.81
30110;BME280;14965;50.660;13.226;2023-04-25T05:40:53;94001.81;;;5.86;87.34
30110;BME280;14965;50.660;13.226;2023-04-25T05:43:19;94002.59;;;5.87;87.38
30110;BME280;14965;50.660;13.226;2023-04-25T05:45:45;94004.97;;;5.85;87.09
30110;BME280;14965;50.660;13.226;2023-04-25T05:48:10;94010.91;;;5.83;86.79
30110;BME280;14965;50.660;13.226;2023-04-25T05:50:36;94010.56;;;5.81;86.35
30110;BME280;14965;50.660;13.226;2023-04-25T05:53:02;94014.56;;;5.77;86.44
30110;BME280;14965;50.660;13.226;2023-04-25T05:55:29;94011.84;;;5.77;85.92
30110;BME280;14965;50.660;13.226;2023-04-25T05:57:55;94023.84;;;5.83;86.29
30110;BME280;14965;50.660;13.226;2023-04-25T06:00:21;94020.31;;;5.82;86.17
30110;BME280;14965;50.660;13.226;2023-04-25T06:02:47;94017.59;;;5.82;86.08
30110;BME280;14965;50.660;13.226;2023-04-25T06:05:13;94012.78;;;5.86;86.91
30110;BME280;14965;50.660;13.226;2023-04-25T06:07:38;94023.75;;;5.86;85.73
30110;BME280;14965;50.660;13.226;2023-04-25T06:10:06;94025.28;;;5.87;84.71
30110;BME280;14965;50.660;13.226;2023-04-25T06:12:34;94032.66;;;5.90;83.95
30110;BME280;14965;50.660;13.226;2023-04-25T06:15:00;94025.06;;;5.98;84.44
30110;BME280;14965;50.660;13.226;2023-04-25T06:17:26;94028.50;;;6.02;84.69
30110;BME280;14965;50.660;13.226;2023-04-25T06:19:51;94027.28;;;6.03;83.95
30110;BME280;14965;50.660;13.226;2023-04-25T06:22:17;94024.47;;;6.07;83.95
30110;BME280;14965;50.660;13.226;2023-04-25T06:24:43;94023.50;;;6.13;83.56
30110;BME280;14965;50.660;13.226;2023-04-25T06:27:09;94022.03;;;6.25;83.58
30110;BME280;14965;50.660;13.226;2023-04-25T06:29:36;94030.66;;;6.40;83.82
30110;BME280;14965;50.660;13.226;2023-04-25T06:32:02;94036.88;;;6.57;83.30
30110;BME280;14965;50.660;13.226;2023-04-25T06:34:28;94028.28;;;6.55;82.49
30110;BME280;14965;50.660;13.226;2023-04-25T06:36:54;94039.13;;;6.45;82.09
30110;BME280;14965;50.660;13.226;2023-04-25T06:39:19;94036.28;;;6.49;82.40
30110;BME280;14965;50.660;13.226;2023-04-25T06:41:45;94038.78;;;6.43;82.42
30110;BME280;14965;50.660;13.226;2023-04-25T06:44:11;94030.81;;;6.49;82.20
30110;BME280;14965;50.660;13.226;2023-04-25T06:46:38;94029.44;;;6.41;80.60
30110;BME280;14965;50.660;13.226;2023-04-25T06:49:04;94041.63;;;6.40;80.85
30110;BME280;14965;50.660;13.226;2023-04-25T06:51:30;94042.91;;;6.35;81.20
30110;BME280;14965;50.660;13.226;2023-04-25T06:53:56;94040.16;;;6.35;81.68
30110;BME280;14965;50.660;13.226;2023-04-25T06:56:21;94040.69;;;6.30;81.35
30110;BME280;14965;50.660;13.226;2023-04-25T06:58:47;94036.84;;;6.28;80.64
30110;BME280;14965;50.660;13.226;2023-04-25T07:01:13;94048.69;;;6.24;81.33
30110;BME280;14965;50.660;13.226;2023-04-25T07:03:40;94044.41;;;6.23;81.90
30110;BME280;14965;50.660;13.226;2023-04-25T07:06:06;94043.19;;;6.24;81.45
30110;BME280;14965;50.660;13.226;2023-04-25T07:08:32;94049.69;;;6.31;82.26
30110;BME280;14965;50.660;13.226;2023-04-25T07:10:58;94053.13;;;6.18;80.15
30110;BME280;14965;50.660;13.226;2023-04-25T07:13:24;94061.25;;;6.22;80.88
30110;BME280;14965;50.660;13.226;2023-04-25T07:15:50;94069.94;;;6.04;81.06
30110;BME280;14965;50.660;13.226;2023-04-25T07:18:15;94073.75;;;5.74;82.52
30110;BME280;14965;50.660;13.226;2023-04-25T07:20:43;94076.44;;;5.41;84.46
30110;BME280;14965;50.660;13.226;2023-04-25T07:23:09;94074.78;;;5.28;87.30
30110;BME280;14965;50.660;13.226;2023-04-25T07:25:35;94084.72;;;5.18;88.08
30110;BME280;14965;50.660;13.226;2023-04-25T07:28:00;94078.88;;;4.99;90.44
30110;BME280;14965;50.660;13.226;2023-04-25T07:30:26;94093.03;;;4.94;91.53
30110;BME280;14965;50.660;13.226;2023-04-25T07:32:52;94092.34;;;4.90;92.23
30110;BME280;14965;50.660;13.226;2023-04-25T07:35:18;94089.59;;;4.90;92.62
30110;BME280;14965;50.660;13.226;2023-04-25T07:37:45;94096.81;;;4.81;93.36
30110;BME280;14965;50.660;13.226;2023-04-25T07:40:11;94101.59;;;4.77;93.94
30110;BME280;14965;50.660;13.226;2023-04-25T07:42:37;94095.72;;;4.55;93.16
30110;BME280;14965;50.660;13.226;2023-04-25T07:45:04;94094.38;;;4.43;93.01
30110;BME280;14965;50.660;13.226;2023-04-25T07:47:30;94095.06;;;4.27;92.17
30110;BME280;14965;50.660;13.226;2023-04-25T07:49:56;94093.91;;;4.24;93.23
30110;BME280;14965;50.660;13.226;2023-04-25T07:52:22;94098.13;;;4.29;93.70
30110;BME280;14965;50.660;13.226;2023-04-25T07:54:49;94091.84;;;4.32;94.32
30110;BME280;14965;50.660;13.226;2023-04-25T07:57:15;94084.28;;;4.40;94.38
30110;BME280;14965;50.660;13.226;2023-04-25T07:59:41;94083.25;;;4.54;95.02
30110;BME280;14965;50.660;13.226;2023-04-25T08:02:07;94086.84;;;4.70;95.06
30110;BME280;14965;50.660;13.226;2023-04-25T08:04:32;94083.28;;;4.93;94.42
30110;BME280;14965;50.660;13.226;2023-04-25T08:06:58;94090.00;;;5.29;92.81
30110;BME280;14965;50.660;13.226;2023-04-25T08:09:24;94080.28;;;5.44;90.76
30110;BME280;14965;50.660;13.226;2023-04-25T08:11:51;94090.66;;;5.53;90.69
30110;BME280;14965;50.660;13.226;2023-04-25T08:14:17;94089.41;;;5.73;89.57
30110;BME280;14965;50.660;13.226;2023-04-25T08:16:43;94092.38;;;6.15;87.34
30110;BME280;14965;50.660;13.226;2023-04-25T08:19:09;94090.50;;;6.74;87.27
30110;BME280;14965;50.660;13.226;2023-04-25T08:21:35;94082.31;;;7.16;85.01
30110;BME280;14965;50.660;13.226;2023-04-25T08:24:01;94083.34;;;7.73;86.15
30110;BME280;14965;50.660;13.226;2023-04-25T08:26:28;94080.19;;;8.00;82.96
30110;BME280;14965;50.660;13.226;2023-04-25T08:28:55;94082.38;;;7.92;81.20
30110;BME280;14965;50.660;13.226;2023-04-25T08:31:21;94086.00;;;7.77;83.14
30110;BME280;14965;50.660;13.226;2023-04-25T08:33:47;94089.94;;;7.50;81.83
30110;BME280;14965;50.660;13.226;2023-04-25T08:36:13;94095.63;;;7.43;82.88
30110;BME280;14965;50.660;13.226;2023-04-25T08:38:39;94090.03;;;7.46;83.20
30110;BME280;14965;50.660;13.226;2023-04-25T08:41:06;94088.81;;;7.35;81.48
30110;BME280;14965;50.660;13.226;2023-04-25T08:43:33;94104.16;;;7.19;81.87
30110;BME280;14965;50.660;13.226;2023-04-25T08:46:01;94098.00;;;7.15;82.33
30110;BME280;14965;50.660;13.226;2023-04-25T08:48:28;94111.88;;;7.24;85.09
30110;BME280;14965;50.660;13.226;2023-04-25T08:50:56;94101.69;;;7.51;85.45
30110;BME280;14965;50.660;13.226;2023-04-25T08:53:26;94107.19;;;7.51;81.50
30110;BME280;14965;50.660;13.226;2023-04-25T08:55:54;94109.97;;;7.63;80.91
30110;BME280;14965;50.660;13.226;2023-04-25T08:58:21;94104.16;;;7.74;79.31
30110;BME280;14965;50.660;13.226;2023-04-25T09:00:47;94097.34;;;7.91;79.04
30110;BME280;14965;50.660;13.226;2023-04-25T09:03:15;94095.47;;;8.01;78.27
30110;BME280;14965;50.660;13.226;2023-04-25T09:05:41;94104.59;;;7.98;76.51
30110;BME280;14965;50.660;13.226;2023-04-25T09:08:07;94101.53;;;7.83;75.91
30110;BME280;14965;50.660;13.226;2023-04-25T09:10:34;94107.97;;;7.64;76.58
30110;BME280;14965;50.660;13.226;2023-04-25T09:13:05;94116.53;;;7.40;77.48
30110;BME280;14965;50.660;13.226;2023-04-25T09:15:32;94122.94;;;6.92;76.95
30110;BME280;14965;50.660;13.226;2023-04-25T09:17:59;94121.09;;;6.72;78.49
30110;BME280;14965;50.660;13.226;2023-04-25T09:20:27;94123.00;;;6.59;77.48
30110;BME280;14965;50.660;13.226;2023-04-25T09:23:02;94127.97;;;6.64;78.29
30110;BME280;14965;50.660;13.226;2023-04-25T09:25:34;94124.56;;;6.89;79.34
30110;BME280;14965;50.660;13.226;2023-04-25T09:28:04;94128.84;;;7.48;80.50
30110;BME280;14965;50.660;13.226;2023-04-25T09:30:32;94124.16;;;7.74;76.26
30110;BME280;14965;50.660;13.226;2023-04-25T09:43:56;94137.97;;;7.45;75.70
30110;BME280;14965;50.660;13.226;2023-04-25T09:46:32;94139.50;;;7.46;75.74
30110;BME280;14965;50.660;13.226;2023-04-25T09:49:16;94144.75;;;7.41;76.45
30110;BME280;14965;50.660;13.226;2023-04-25T09:52:24;94148.53;;;7.60;76.30
30110;BME280;14965;50.660;13.226;2023-04-25T09:55:22;94157.19;;;7.45;73.16
30110;BME280;14965;50.660;13.226;2023-04-25T13:31:31;94312.09;;;5.31;90.45
30110;BME280;14965;50.660;13.226;2023-04-25T13:33:57;94316.22;;;5.19;91.36
30110;BME280;14965;50.660;13.226;2023-04-25T13:36:36;94319.56;;;5.07;92.80
30110;BME280;14965;50.660;13.226;2023-04-25T13:39:04;94325.38;;;4.85;93.31
30110;BME280;14965;50.660;13.226;2023-04-25T13:42:03;94322.31;;;4.80;94.69
30110;BME280;14965;50.660;13.226;2023-04-25T14:00:41;94325.75;;;5.11;97.95
30110;BME280;14965;50.660;13.226;2023-04-25T14:03:07;94326.75;;;5.20;97.80
30110;BME280;14965;50.660;13.226;2023-04-25T14:09:21;94329.53;;;5.40;96.35
30110;BME280;14965;50.660;13.226;2023-04-25T14:11:47;94324.72;;;5.48;96.15
30110;BME280;14965;50.660;13.226;2023-04-25T14:14:13;94320.22;;;5.58;94.89
30110;BME280;14965;50.660;13.226;2023-04-25T14:16:40;94321.16;;;5.71;95.52
30110;BME280;14965;50.660;13.226;2023-04-25T14:19:06;94327.63;;;5.81;94.08
30110;BME280;14965;50.660;13.226;2023-04-25T14:21:31;94335.38;;;5.86;93.22
30110;BME280;14965;50.660;13.226;2023-04-25T14:23:57;94331.00;;;5.88;93.61
30110;BME280;14965;50.660;13.226;2023-04-25T14:26:23;94332.75;;;5.79;92.73
30110;BME280;14965;50.660;13.226;2023-04-25T14:28:51;94336.69;;;5.78;91.40
30110;BME280;14965;50.660;13.226;2023-04-25T14:31:17;94332.44;;;5.96;92.14
30110;BME280;14965;50.660;13.226;2023-04-25T14:33:45;94331.66;;;6.16;91.15
30110;BME280;14965;50.660;13.226;2023-04-25T14:36:11;94332.56;;;6.29;91.32
30110;BME280;14965;50.660;13.226;2023-04-25T14:38:37;94320.31;;;6.34;89.64
30110;BME280;14965;50.660;13.226;2023-04-25T14:41:03;94323.75;;;6.38;88.33
30110;BME280;14965;50.660;13.226;2023-04-25T14:43:29;94319.53;;;6.53;88.23
30110;BME280;14965;50.660;13.226;2023-04-25T14:45:55;94318.41;;;6.67;87.51
30110;BME280;14965;50.660;13.226;2023-04-25T14:48:21;94319.19;;;6.67;86.90
30110;BME280;14965;50.660;13.226;2023-04-25T14:50:48;94322.38;;;6.66;85.22
30110;BME280;14965;50.660;13.226;2023-04-25T14:53:14;94310.19;;;6.67;85.90
30110;BME280;14965;50.660;13.226;2023-04-25T14:55:43;94312.25;;;6.63;84.84
30110;BME280;14965;50.660;13.226;2023-04-25T14:58:09;94318.09;;;6.65;85.44
30110;BME280;14965;50.660;13.226;2023-04-25T15:00:35;94317.66;;;6.66;84.09
30110;BME280;14965;50.660;13.226;2023-04-25T15:03:00;94322.69;;;6.68;84.49
30110;BME280;14965;50.660;13.226;2023-04-25T15:05:26;94322.00;;;6.64;85.05
30110;BME280;14965;50.660;13.226;2023-04-25T15:07:54;94326.22;;;6.52;83.07
30110;BME280;14965;50.660;13.226;2023-04-25T15:10:20;94331.69;;;6.52;83.60
30110;BME280;14965;50.660;13.226;2023-04-25T15:12:47;94338.66;;;6.57;84.69
30110;BME280;14965;50.660;13.226;2023-04-25T15:15:14;94329.13;;;6.61;85.12
30110;BME280;14965;50.660;13.226;2023-04-25T15:17:41;94333.50;;;6.59;85.93
30110;BME280;14965;50.660;13.226;2023-04-25T15:20:10;94326.28;;;6.48;86.19
30110;BME280;14965;50.660;13.226;2023-04-25T15:22:36;94329.59;;;6.40;86.04
30110;BME280;14965;50.660;13.226;2023-04-25T15:25:05;94358.78;;;6.30;86.30
30110;BME280;14965;50.660;13.226;2023-04-25T15:27:31;94379.91;;;5.90;87.60
30110;BME280;14965;50.660;13.226;2023-04-25T15:29:57;94386.50;;;5.25;87.97
30110;BME280;14965;50.660;13.226;2023-04-25T15:32:23;94392.13;;;4.91;91.24
30110;BME280;14965;50.660;13.226;2023-04-25T15:34:48;94392.78;;;4.72;93.19
30110;BME280;14965;50.660;13.226;2023-04-25T15:37:14;94386.75;;;4.57;94.40
30110;BME280;14965;50.660;13.226;2023-04-25T15:39:40;94385.94;;;4.60;96.08
30110;BME280;14965;50.660;13.226;2023-04-25T15:42:07;94387.47;;;4.61;95.55
30110;BME280;14965;50.660;13.226;2023-04-25T15:44:33;94386.28;;;4.62;95.79
30110;BME280;14965;50.660;13.226;2023-04-25T15:46:59;94397.59;;;4.64;97.87
30110;BME280;14965;50.660;13.226;2023-04-25T15:49:25;94395.28;;;4.59;97.97
30110;BME280;14965;50.660;13.226;2023-04-25T15:51:51;94399.19;;;4.62;98.39
30110;BME280;14965;50.660;13.226;2023-04-25T15:54:17;94396.03;;;4.63;98.76
30110;BME280;14965;50.660;13.226;2023-04-25T15:56:43;94397.38;;;4.79;99.03
30110;BME280;14965;50.660;13.226;2023-04-25T15:59:10;94391.47;;;4.80;98.84
30110;BME280;14965;50.660;13.226;2023-04-25T16:01:36;94394.03;;;4.94;100.00
30110;BME280;14965;50.660;13.226;2023-04-25T16:04:02;94385.28;;;5.03;99.78
30110;BME280;14965;50.660;13.226;2023-04-25T16:06:28;94385.34;;;4.99;97.79
30110;BME280;14965;50.660;13.226;2023-04-25T16:08:54;94387.22;;;5.06;97.42
30110;BME280;14965;50.660;13.226;2023-04-25T16:11:21;94397.22;;;5.16;98.13
30110;BME280;14965;50.660;13.226;2023-04-25T16:13:47;94389.28;;;5.22;97.80
30110;BME280;14965;50.660;13.226;2023-04-25T16:16:14;94392.09;;;5.18;96.67
30110;BME280;14965;50.660;13.226;2023-04-25T16:18:40;94391.69;;;5.20;96.96
30110;BME280;14965;50.660;13.226;2023-04-25T16:21:06;94393.22;;;5.21;96.80
30110;BME280;14965;50.660;13.226;2023-04-25T16:23:32;94391.69;;;5.20;96.89
30110;BME280;14965;50.660;13.226;2023-04-25T16:25:58;94397.22;;;5.16;94.61
30110;BME280;14965;50.660;13.226;2023-04-25T16:28:25;94395.19;;;5.20;95.51
30110;BME280;14965;50.660;13.226;2023-04-25T16:30:51;94396.56;;;5.32;95.84
30110;BME280;14965;50.660;13.226;2023-04-25T16:33:18;94399.00;;;5.50;96.78
30110;BME280;14965;50.660;13.226;2023-04-25T16:35:44;94401.16;;;5.62;96.79
30110;BME280;14965;50.660;13.226;2023-04-25T16:38:10;94397.59;;;5.65;94.69
30110;BME280;14965;50.660;13.226;2023-04-25T16:40:35;94405.75;;;5.69;93.99
30110;BME280;14965;50.660;13.226;2023-04-25T16:43:01;94405.91;;;5.58;92.83
30110;BME280;14965;50.660;13.226;2023-04-25T16:45:27;94406.41;;;5.53;92.98
30110;BME280;14965;50.660;13.226;2023-04-25T16:47:53;94406.94;;;5.44;90.91
30110;BME280;14965;50.660;13.226;2023-04-25T16:50:20;94407.91;;;5.31;90.12
30110;BME280;14965;50.660;13.226;2023-04-25T16:52:46;94411.50;;;5.28;90.98
30110;BME280;14965;50.660;13.226;2023-04-25T16:55:12;94412.44;;;5.17;89.96
30110;BME280;14965;50.660;13.226;2023-04-25T16:57:38;94413.78;;;5.06;90.26
30110;BME280;14965;50.660;13.226;2023-04-25T17:00:05;94415.41;;;5.03;90.47
30110;BME280;14965;50.660;13.226;2023-04-25T17:02:31;94420.44;;;5.05;91.09